Time;durP1;ratioP1;P1;durP2;ratioP2;P2;SDS_P1;SDS_P2;PMS_P1;PMS_P2;Temp;Humidity;BMP_temperature;BMP_pressure;BME280_temperature;BME280_humidity;BME280_pressure;Samples;Min_cycle;Max_cycle;Signal;HPM_P1;HPM_P2
2023/09/18 00:00:00;;;;;;;19.92;11.07;;;18.10;99.90;;;;;;5055398;28;20025;-73
2023/09/18 00:02:26;;;;;;;21.63;10.95;;;18.10;99.90;;;;;;5054861;28;20036;-73
2023/09/18 00:04:52;;;;;;;16.05;9.98;;;18.10;99.90;;;;;;5055432;28;20032;-73
2023/09/18 00:07:18;;;;;;;19.58;10.63;;;18.30;99.90;;;;;;5037191;28;20029;-73
2023/09/18 00:09:43;;;;;;;20.73;9.80;;;18.20;99.90;;;;;;5036927;28;20028;-73
2023/09/18 00:12:09;;;;;;;15.40;9.85;;;18.20;99.90;;;;;;5054579;28;20392;-73
2023/09/18 00:14:36;;;;;;;18.55;10.07;;;18.30;99.90;;;;;;5055073;28;20028;-73
2023/09/18 00:17:02;;;;;;;17.40;9.65;;;18.30;99.90;;;;;;5054522;28;20021;-73
2023/09/18 00:19:27;;;;;;;13.73;8.93;;;18.30;99.90;;;;;;5054004;28;20480;-73
2023/09/18 00:21:54;;;;;;;16.52;9.25;;;18.30;99.90;;;;;;5054845;28;20025;-73
2023/09/18 00:24:20;;;;;;;15.48;9.60;;;18.30;99.90;;;;;;5054466;28;20497;-73
2023/09/18 00:26:47;;;;;;;14.88;9.20;;;18.40;99.90;;;;;;5019868;28;20029;-73
2023/09/18 00:29:13;;;;;;;15.23;9.30;;;18.40;99.90;;;;;;5036327;28;20371;-73
2023/09/18 00:31:39;;;;;;;14.65;8.88;;;18.40;99.90;;;;;;5054633;28;20075;-73
2023/09/18 00:34:04;;;;;;;14.00;8.75;;;18.40;99.90;;;;;;5053939;28;20028;-73
2023/09/18 00:36:30;;;;;;;14.13;9.27;;;18.30;99.90;;;;;;5054534;28;20043;-73
2023/09/18 00:38:55;;;;;;;13.15;8.68;;;18.30;99.90;;;;;;5054008;28;20112;-73
2023/09/18 00:41:21;;;;;;;18.00;8.98;;;18.40;99.90;;;;;;5053879;28;20028;-73
2023/09/18 00:43:46;;;;;;;13.90;9.10;;;18.30;99.90;;;;;;5053848;28;20083;-73
2023/09/18 00:46:12;;;;;;;16.90;9.25;;;18.30;99.90;;;;;;5053805;28;20032;-73
2023/09/18 00:48:38;;;;;;;13.27;8.18;;;18.30;99.90;;;;;;5053751;28;20021;-73
2023/09/18 00:51:03;;;;;;;13.05;7.82;;;18.30;99.90;;;;;;5054045;28;20104;-73
2023/09/18 00:53:29;;;;;;;15.60;8.73;;;18.30;99.90;;;;;;5053772;28;20021;-73
2023/09/18 00:55:58;;;;;;;16.35;9.23;;;18.40;99.90;;;;;;5053644;28;20052;-73
2023/09/18 00:58:25;;;;;;;15.13;8.77;;;18.30;99.90;;;;;;5053690;28;20099;-73
2023/09/18 01:00:51;;;;;;;17.20;8.50;;;18.30;99.90;;;;;;5053635;28;20051;-73
2023/09/18 01:03:18;;;;;;;12.73;7.65;;;18.30;99.90;;;;;;5053568;28;20031;-73
2023/09/18 01:05:44;;;;;;;15.82;9.00;;;18.30;99.90;;;;;;5053431;28;20025;-73
2023/09/18 01:08:10;;;;;;;15.32;9.35;;;18.30;99.90;;;;;;5053477;28;20021;-73
2023/09/18 01:11:00;;;;;;;15.93;8.38;;;18.30;99.90;;;;;;5053356;28;20017;-73
2023/09/18 01:13:45;;;;;;;12.82;8.75;;;18.30;99.90;;;;;;5053444;28;20017;-73
2023/09/18 01:16:24;;;;;;;14.63;9.13;;;18.30;99.90;;;;;;5053322;28;20016;-73
2023/09/18 01:18:51;;;;;;;14.70;8.88;;;18.30;99.90;;;;;;5035355;28;20480;-74
2023/09/18 01:21:19;;;;;;;14.52;9.15;;;18.30;99.90;;;;;;5035503;28;20035;-73
2023/09/18 01:23:45;;;;;;;11.88;7.40;;;18.20;99.90;;;;;;5053384;28;20479;-73
2023/09/18 01:26:10;;;;;;;13.93;8.70;;;18.20;99.90;;;;;;5053319;28;20071;-73
2023/09/18 01:28:36;;;;;;;12.63;7.78;;;18.20;99.90;;;;;;5053376;28;20033;-73
2023/09/18 01:31:01;;;;;;;13.10;8.10;;;18.20;99.90;;;;;;5053356;28;20025;-73
2023/09/18 01:33:28;;;;;;;12.35;8.40;;;18.20;99.90;;;;;;5054116;28;20057;-73
2023/09/18 01:35:55;;;;;;;13.75;7.90;;;18.20;99.90;;;;;;5036228;28;20056;-73
2023/09/18 01:38:23;;;;;;;11.63;7.88;;;18.20;99.90;;;;;;5053101;28;20476;-73
2023/09/18 01:40:49;;;;;;;11.77;7.68;;;18.20;99.90;;;;;;5053023;28;20017;-73
2023/09/18 01:43:15;;;;;;;13.00;7.97;;;18.20;99.90;;;;;;5035051;28;20104;-73
2023/09/18 01:45:41;;;;;;;17.83;8.63;;;18.20;99.90;;;;;;5052810;28;20550;-73
2023/09/18 01:48:07;;;;;;;12.48;7.78;;;18.20;99.90;;;;;;5052926;28;20025;-73
2023/09/18 01:50:32;;;;;;;13.07;8.23;;;18.20;99.90;;;;;;5035258;28;20514;-73
2023/09/18 01:53:01;;;;;;;13.70;7.57;;;18.20;99.90;;;;;;5053123;28;20021;-73
2023/09/18 01:55:29;;;;;;;11.90;7.47;;;18.20;99.90;;;;;;5035260;28;20040;-73
2023/09/18 01:57:55;;;;;;;11.27;7.60;;;18.20;99.90;;;;;;5053536;28;20033;-73
2023/09/18 02:00:21;;;;;;;11.52;7.15;;;18.20;99.90;;;;;;5053148;28;20021;-73
2023/09/18 02:02:47;;;;;;;15.88;7.60;;;18.20;99.90;;;;;;5053137;28;20025;-73
2023/09/18 02:05:12;;;;;;;13.93;7.85;;;18.20;99.90;;;;;;5035212;28;20044;-73
2023/09/18 02:07:38;;;;;;;11.40;7.15;;;18.20;99.90;;;;;;5053050;28;20026;-73
2023/09/18 02:10:04;;;;;;;10.73;7.40;;;18.20;99.90;;;;;;5052802;28;20021;-73
2023/09/18 02:12:30;;;;;;;12.68;7.65;;;18.30;99.90;;;;;;5053008;28;20104;-73
2023/09/18 02:14:58;;;;;;;12.88;7.18;;;18.30;99.90;;;;;;5052866;28;20170;-73
2023/09/18 02:17:24;;;;;;;13.43;7.63;;;18.30;99.90;;;;;;5034819;28;20021;-73
2023/09/18 02:19:49;;;;;;;10.43;6.63;;;18.30;99.90;;;;;;5034917;28;20026;-73
2023/09/18 02:22:15;;;;;;;12.70;7.25;;;18.30;99.90;;;;;;5052716;28;20027;-73
2023/09/18 02:24:41;;;;;;;10.85;7.90;;;18.30;99.90;;;;;;5052823;28;20366;-73
2023/09/18 02:27:07;;;;;;;13.02;7.55;;;18.30;99.90;;;;;;5053105;28;20025;-73
2023/09/18 02:29:32;;;;;;;10.27;7.32;;;18.30;99.90;;;;;;5052718;28;20032;-73
2023/09/18 02:31:58;;;;;;;12.68;6.88;;;18.30;99.90;;;;;;5052896;28;20017;-73
2023/09/18 02:34:23;;;;;;;10.70;7.15;;;18.30;99.90;;;;;;5052753;28;20047;-73
2023/09/18 02:36:50;;;;;;;15.80;7.45;;;18.30;99.90;;;;;;5053255;28;20435;-73
2023/09/18 02:39:15;;;;;;;13.60;7.50;;;18.30;99.90;;;;;;5052592;28;20542;-73
2023/09/18 02:41:41;;;;;;;10.10;6.28;;;18.30;99.90;;;;;;5054204;28;20021;-73
2023/09/18 02:44:07;;;;;;;14.23;7.85;;;18.30;99.90;;;;;;5056375;28;20473;-73
2023/09/18 02:46:33;;;;;;;13.88;7.22;;;18.30;99.90;;;;;;5056323;28;20033;-73
2023/09/18 02:48:58;;;;;;;15.25;8.75;;;18.40;99.90;;;;;;5056254;28;20106;-73
2023/09/18 02:51:24;;;;;;;15.35;8.82;;;18.40;99.90;;;;;;5056141;28;20032;-73
2023/09/18 02:53:49;;;;;;;16.35;8.00;;;18.40;99.90;;;;;;5056156;28;20029;-73
2023/09/18 02:56:15;;;;;;;12.27;8.45;;;18.40;99.90;;;;;;5056050;28;20384;-73
2023/09/18 02:58:40;;;;;;;16.52;8.55;;;18.40;99.90;;;;;;5056266;28;20025;-73
2023/09/18 03:01:07;;;;;;;14.10;9.00;;;18.50;99.90;;;;;;5038239;28;20110;-73
2023/09/18 03:03:33;;;;;;;16.17;7.85;;;18.50;99.90;;;;;;5056101;28;20021;-73
2023/09/18 03:06:03;;;;;;;13.88;8.55;;;18.50;99.90;;;;;;5038664;28;20035;-75
2023/09/18 03:08:29;;;;;;;17.30;9.88;;;18.50;99.90;;;;;;5056142;28;20028;-75
2023/09/18 03:10:54;;;;;;;13.85;7.70;;;18.50;99.90;;;;;;5055789;28;20024;-75
2023/09/18 03:13:21;;;;;;;16.67;8.38;;;18.40;99.90;;;;;;5038057;28;20029;-75
2023/09/18 03:15:47;;;;;;;15.52;8.43;;;18.40;99.90;;;;;;5056059;28;20048;-75
2023/09/18 03:18:13;;;;;;;12.98;8.00;;;18.40;99.90;;;;;;5055913;28;20055;-75
2023/09/18 03:20:39;;;;;;;13.35;8.57;;;18.40;99.90;;;;;;5055778;28;20021;-75
2023/09/18 03:23:04;;;;;;;16.10;7.93;;;18.40;99.90;;;;;;5055745;28;20014;-75
2023/09/18 03:25:30;;;;;;;17.83;8.70;;;18.30;99.90;;;;;;5055740;28;20025;-75
2023/09/18 03:27:57;;;;;;;19.67;8.80;;;18.40;99.90;;;;;;5038286;28;20118;-75
2023/09/18 03:30:24;;;;;;;15.88;9.70;;;18.30;99.90;;;;;;5055465;28;20384;-75
2023/09/18 03:32:51;;;;;;;18.45;9.15;;;18.40;99.90;;;;;;5037535;28;20108;-75
2023/09/18 03:35:20;;;;;;;15.10;8.50;;;18.40;99.90;;;;;;5055251;28;20021;-75
2023/09/18 03:37:46;;;;;;;16.10;8.60;;;18.40;99.90;;;;;;5055199;28;20029;-75
2023/09/18 03:40:12;;;;;;;15.18;9.23;;;18.30;99.90;;;;;;5037234;28;20107;-75
2023/09/18 03:42:38;;;;;;;14.05;8.90;;;18.40;99.90;;;;;;5054972;28;20498;-75
2023/09/18 03:45:07;;;;;;;21.98;10.20;;;18.40;99.90;;;;;;5054784;28;20507;-75
2023/09/18 03:47:39;;;;;;;15.40;8.45;;;18.40;99.90;;;;;;5054968;28;20028;-75
2023/09/18 03:50:12;;;;;;;20.52;10.38;;;18.40;99.90;;;;;;5055080;28;20039;-75
2023/09/18 03:52:39;;;;;;;18.35;10.30;;;18.40;99.90;;;;;;5036834;28;20025;-75
2023/09/18 03:55:08;;;;;;;18.73;10.75;;;18.50;99.90;;;;;;5054586;28;20024;-75
2023/09/18 03:57:35;;;;;;;15.00;9.43;;;18.50;99.90;;;;;;5054737;28;20052;-75
2023/09/18 04:00:00;;;;;;;14.27;9.32;;;18.50;99.90;;;;;;5054621;28;20024;-75
2023/09/18 04:02:26;;;;;;;16.00;9.88;;;18.60;99.90;;;;;;5055409;28;20376;-75
2023/09/18 04:04:53;;;;;;;15.77;9.07;;;18.70;99.90;;;;;;5036772;28;20463;-75
2023/09/18 04:07:19;;;;;;;13.23;7.40;;;18.60;99.90;;;;;;5054615;28;20025;-75
2023/09/18 04:09:45;;;;;;;15.13;7.65;;;18.80;99.90;;;;;;5054699;28;20140;-75
2023/09/18 04:12:11;;;;;;;12.50;6.45;;;18.90;99.90;;;;;;5054548;28;20032;-75
2023/09/18 04:14:36;;;;;;;14.68;6.90;;;18.90;99.90;;;;;;5054186;28;20488;-75
2023/09/18 04:17:02;;;;;;;11.70;6.05;;;;;;;;;;5036401;28;20017;-75
2023/09/18 04:19:29;;;;;;;10.63;5.60;;;19.00;99.90;;;;;;5054417;28;20033;-75
2023/09/18 04:21:54;;;;;;;7.97;3.85;;;19.00;99.90;;;;;;5036416;28;20021;-75
2023/09/18 04:24:20;;;;;;;3.80;2.85;;;19.10;99.90;;;;;;5036478;28;20083;-75
2023/09/18 04:26:46;;;;;;;6.18;2.40;;;19.10;99.90;;;;;;5036310;28;20048;-75
2023/09/18 04:29:12;;;;;;;3.10;2.45;;;19.10;99.90;;;;;;5036315;28;20071;-75
2023/09/18 04:31:38;;;;;;;2.95;1.15;;;19.00;99.90;;;;;;5053910;28;20104;-75
2023/09/18 04:34:03;;;;;;;14.52;0.40;;;19.00;99.90;;;;;;5053988;28;20021;-75
2023/09/18 04:36:29;;;;;;;1.92;0.13;;;19.00;99.90;;;;;;5054202;28;20112;-71
2023/09/18 04:38:55;;;;;;;4.15;0.40;;;18.90;99.90;;;;;;5054057;28;20111;-71
2023/09/18 04:41:20;;;;;;;2.00;0.40;;;18.90;99.90;;;;;;5054635;28;20033;-71
2023/09/18 04:43:46;;;;;;;7.28;1.33;;;18.80;99.90;;;;;;5054159;28;20018;-71
2023/09/18 04:46:12;;;;;;;1.88;1.10;;;18.70;99.90;;;;;;5054047;28;20056;-71
2023/09/18 04:48:38;;;;;;;3.08;1.13;;;18.70;99.90;;;;;;5053909;28;20017;-71
2023/09/18 04:51:04;;;;;;;2.95;1.10;;;18.70;99.90;;;;;;5054028;28;20046;-71
2023/09/18 04:53:31;;;;;;;4.82;1.60;;;18.60;99.90;;;;;;5053842;28;20024;-71
2023/09/18 04:55:57;;;;;;;5.53;1.52;;;18.60;99.90;;;;;;5053845;28;20028;-72
2023/09/18 04:58:22;;;;;;;6.55;2.17;;;18.60;99.90;;;;;;5053991;28;20028;-72
2023/09/18 05:00:55;;;;;;;4.82;2.33;;;18.60;99.90;;;;;;5054116;28;20047;-71
2023/09/18 05:03:21;;;;;;;3.58;1.92;;;18.50;99.90;;;;;;5053804;28;20472;-71
2023/09/18 05:05:47;;;;;;;6.78;2.80;;;18.50;99.90;;;;;;5053448;28;20392;-71
2023/09/18 05:08:13;;;;;;;6.47;2.28;;;18.50;99.90;;;;;;5053894;28;20029;-71
2023/09/18 05:10:38;;;;;;;6.07;2.25;;;18.50;99.90;;;;;;5053601;28;20079;-71
2023/09/18 05:13:04;;;;;;;3.80;2.38;;;18.50;99.90;;;;;;5054147;28;20025;-71
2023/09/18 05:15:30;;;;;;;8.63;3.13;;;18.40;99.90;;;;;;5053332;28;20025;-71
2023/09/18 05:17:57;;;;;;;7.95;3.22;;;18.50;99.90;;;;;;5053561;28;20029;-71
2023/09/18 05:20:28;;;;;;;7.22;3.28;;;18.50;99.90;;;;;;5035429;28;20029;-71
2023/09/18 05:22:55;;;;;;;10.65;3.78;;;18.50;99.90;;;;;;5053465;28;20480;-71
2023/09/18 05:25:22;;;;;;;5.28;3.47;;;18.50;99.90;;;;;;5053481;28;20028;-71
2023/09/18 05:27:54;;;;;;;6.25;2.95;;;18.50;99.90;;;;;;5035415;28;20025;-71
2023/09/18 05:30:29;;;;;;;4.60;2.80;;;18.50;99.90;;;;;;5053355;28;20028;-71
2023/09/18 05:32:55;;;;;;;12.35;3.72;;;18.50;99.90;;;;;;5053759;28;20380;-71
2023/09/18 05:35:22;;;;;;;5.97;3.42;;;18.50;99.90;;;;;;5052981;28;20040;-71
2023/09/18 05:37:50;;;;;;;5.40;2.92;;;18.50;99.90;;;;;;5035345;28;20025;-71
2023/09/18 05:40:17;;;;;;;5.78;2.90;;;18.50;99.90;;;;;;5053248;28;20029;-71
2023/09/18 05:42:44;;;;;;;4.47;2.70;;;18.50;99.90;;;;;;5053006;28;20021;-71
2023/09/18 05:45:11;;;;;;;5.18;2.83;;;18.50;99.90;;;;;;5053043;28;20025;-71
2023/09/18 05:47:37;;;;;;;7.47;3.00;;;18.50;99.90;;;;;;5053018;28;20029;-71
2023/09/18 05:50:06;;;;;;;4.53;2.58;;;18.50;99.90;;;;;;5035203;28;20029;-71
2023/09/18 05:52:35;;;;;;;4.45;2.65;;;18.60;99.90;;;;;;5053002;28;20059;-70
2023/09/18 05:55:01;;;;;;;;;;;18.60;99.90;;;;;;5035497;28;20439;-70
2023/09/18 05:57:27;;;;;;;5.30;2.75;;;18.50;99.90;;;;;;5053025;28;19909;-70
2023/09/18 05:59:55;;;;;;;5.10;2.85;;;18.50;99.90;;;;;;5053523;28;20021;-70
2023/09/18 06:02:20;;;;;;;10.52;2.50;;;18.50;99.90;;;;;;5035134;28;20032;-70
2023/09/18 06:04:46;;;;;;;6.10;2.83;;;18.50;99.90;;;;;;5052913;28;20029;-70
2023/09/18 06:07:12;;;;;;;8.65;2.95;;;18.50;99.90;;;;;;5035031;28;20040;-70
2023/09/18 06:09:38;;;;;;;6.43;3.00;;;18.50;99.90;;;;;;5053031;28;20020;-70
2023/09/18 06:12:05;;;;;;;6.30;2.85;;;18.50;99.90;;;;;;5052962;28;20380;-70
2023/09/18 06:14:31;;;;;;;3.55;2.63;;;18.60;99.90;;;;;;5052741;28;20434;-70
2023/09/18 06:16:57;;;;;;;5.10;2.75;;;18.60;99.90;;;;;;5036331;28;20028;-70
2023/09/18 06:19:23;;;;;;;5.43;3.10;;;18.60;99.90;;;;;;5056674;28;20108;-70
2023/09/18 06:21:48;;;;;;;7.32;4.00;;;18.70;99.90;;;;;;5057170;28;20024;-70
2023/09/18 06:24:14;;;;;;;9.23;2.97;;;18.70;99.90;;;;;;5056439;28;20026;-70
2023/09/18 06:26:40;;;;;;;9.57;3.58;;;18.70;99.90;;;;;;5054950;28;20114;-70
2023/09/18 06:29:05;;;;;;;7.03;3.08;;;18.80;99.90;;;;;;5055287;28;20021;-70
2023/09/18 06:31:31;;;;;;;7.80;2.85;;;18.70;99.90;;;;;;5055345;28;20532;-70
2023/09/18 06:33:57;;;;;;;4.50;2.13;;;18.80;99.90;;;;;;5056106;28;20059;-70
2023/09/18 06:36:22;;;;;;;8.55;2.50;;;18.80;99.90;;;;;;5055135;28;20566;-70
2023/09/18 06:38:48;;;;;;;7.80;2.50;;;18.80;99.90;;;;;;5056221;28;20029;-70
2023/09/18 06:41:14;;;;;;;3.22;1.83;;;18.80;99.90;;;;;;5056087;28;20033;-70
2023/09/18 06:43:39;;;;;;;4.93;1.85;;;18.80;99.90;;;;;;5056775;28;20381;-70
2023/09/18 06:46:07;;;;;;;4.53;1.40;;;18.80;99.90;;;;;;5056646;28;20018;-72
2023/09/18 06:48:33;;;;;;;3.58;2.00;;;18.80;99.90;;;;;;5056130;28;20063;-72
2023/09/18 06:51:00;;;;;;;3.75;1.75;;;18.90;99.90;;;;;;5056020;28;20044;-72
2023/09/18 06:53:27;;;;;;;3.03;1.35;;;18.90;99.90;;;;;;5056036;28;20074;-72
2023/09/18 06:55:53;;;;;;;4.63;1.70;;;18.90;99.90;;;;;;5055966;28;20167;-72
2023/09/18 06:58:19;;;;;;;1.70;0.82;;;18.90;99.90;;;;;;5056587;28;20491;-72
2023/09/18 07:00:44;;;;;;;3.83;1.75;;;19.00;99.90;;;;;;5038118;28;20048;-72
2023/09/18 07:03:11;;;;;;;2.88;1.45;;;19.00;99.90;;;;;;5056004;28;20391;-72
2023/09/18 07:05:37;;;;;;;4.35;1.65;;;19.10;99.90;;;;;;5055772;28;20013;-72
2023/09/18 07:08:05;;;;;;;7.72;1.35;;;19.10;99.90;;;;;;5055753;28;20511;-72
2023/09/18 07:10:30;;;;;;;4.88;1.55;;;19.20;99.90;;;;;;5055984;28;20107;-72
2023/09/18 07:12:56;;;;;;;6.47;1.58;;;19.20;99.90;;;;;;5037820;28;20057;-72
2023/09/18 07:15:22;;;;;;;5.18;1.92;;;19.20;99.90;;;;;;5055649;28;20022;-72
2023/09/18 07:17:48;;;;;;;2.35;1.83;;;19.30;99.90;;;;;;5055747;28;20099;-72
2023/09/18 07:20:13;;;;;;;5.97;1.80;;;19.40;99.90;;;;;;5055766;28;20021;-72
2023/09/18 07:22:41;;;;;;;3.67;2.20;;;19.40;99.90;;;;;;5055969;28;20040;-72
2023/09/18 07:25:07;;;;;;;5.38;1.85;;;19.40;99.90;;;;;;5055572;28;20056;-72
2023/09/18 07:27:33;;;;;;;3.85;1.35;;;19.40;99.90;;;;;;5037107;28;20025;-72
2023/09/18 07:29:58;;;;;;;4.63;2.13;;;19.50;99.90;;;;;;5054804;28;20028;-72
2023/09/18 07:32:27;;;;;;;4.47;1.77;;;19.40;99.90;;;;;;5037442;28;20029;-72
2023/09/18 07:34:52;;;;;;;4.45;1.98;;;19.50;99.90;;;;;;5055465;28;20017;-72
2023/09/18 07:37:20;;;;;;;3.00;1.85;;;19.50;99.90;;;;;;5055290;28;20066;-72
2023/09/18 07:39:46;;;;;;;2.40;1.90;;;19.60;99.90;;;;;;5055370;28;20017;-72
2023/09/18 07:42:12;;;;;;;4.13;2.15;;;19.70;99.90;;;;;;5055166;28;20159;-72
2023/09/18 07:44:37;;;;;;;4.00;2.40;;;19.60;99.90;;;;;;5055387;28;20477;-72
2023/09/18 07:47:03;;;;;;;4.10;1.58;;;19.70;99.90;;;;;;5055691;28;20037;-72
2023/09/18 07:49:29;;;;;;;3.20;1.80;;;19.70;99.90;;;;;;5054969;28;20507;-72
2023/09/18 07:51:55;;;;;;;3.55;2.35;;;19.80;99.90;;;;;;5055604;28;20025;-72
2023/09/18 07:54:20;;;;;;;2.95;1.67;;;19.70;99.90;;;;;;5055025;28;20029;-72
2023/09/18 07:56:46;;;;;;;5.63;2.30;;;19.80;99.90;;;;;;5055406;28;20107;-72
2023/09/18 07:59:14;;;;;;;5.28;2.00;;;19.80;99.90;;;;;;5055417;28;20033;-72
2023/09/18 08:01:40;;;;;;;3.50;1.75;;;19.80;99.90;;;;;;5055507;28;20021;-72
2023/09/18 08:04:06;;;;;;;4.63;3.00;;;19.80;99.90;;;;;;5054693;28;20502;-72
2023/09/18 08:06:32;;;;;;;7.88;2.65;;;19.80;99.90;;;;;;5054750;28;20029;-72
2023/09/18 08:08:57;;;;;;;5.55;2.17;;;19.70;99.90;;;;;;5054736;28;20070;-72
2023/09/18 08:11:23;;;;;;;4.82;1.80;;;19.70;99.90;;;;;;5054720;28;20052;-72
2023/09/18 08:13:49;;;;;;;5.90;1.83;;;19.80;99.90;;;;;;5054694;28;20021;-72
2023/09/18 08:16:14;;;;;;;5.50;1.75;;;19.70;99.90;;;;;;5054602;28;20082;-72
2023/09/18 08:18:41;;;;;;;4.85;1.58;;;19.80;99.90;;;;;;5055077;28;20028;-72
2023/09/18 08:21:08;;;;;;;2.38;1.40;;;19.80;99.90;;;;;;5054464;28;20029;-72
2023/09/18 08:23:38;;;;;;;2.43;1.43;;;19.90;99.90;;;;;;5054468;28;20017;-72
2023/09/18 08:26:03;;;;;;;4.43;1.30;;;19.90;99.90;;;;;;5054240;28;20325;-72
2023/09/18 08:28:29;;;;;;;3.25;1.83;;;20.00;99.90;;;;;;5054257;28;20028;-72
2023/09/18 08:30:55;;;;;;;3.65;1.65;;;20.00;99.90;;;;;;5054349;28;20054;-72
2023/09/18 08:33:21;;;;;;;2.10;1.48;;;20.00;99.90;;;;;;5054166;28;20013;-72
2023/09/18 08:35:46;;;;;;;3.25;2.03;;;20.00;99.90;;;;;;5054079;28;20507;-72
2023/09/18 08:38:14;;;;;;;4.03;1.67;;;20.00;99.90;;;;;;5054707;28;20029;-72
2023/09/18 08:40:41;;;;;;;2.35;1.23;;;20.10;99.90;;;;;;5053916;28;20021;-72
2023/09/18 08:43:07;;;;;;;4.30;1.30;;;20.20;99.90;;;;;;5053975;28;20052;-72
2023/09/18 08:45:52;;;;;;;1.98;1.00;;;20.50;99.90;;;;;;5053789;28;20053;-72
2023/09/18 08:48:18;;;;;;;1.60;1.13;;;20.60;99.90;;;;;;5054417;28;20380;-72
2023/09/18 08:50:45;;;;;;;3.10;0.85;;;20.70;99.90;;;;;;5053750;28;20033;-72
2023/09/18 08:53:11;;;;;;;4.20;1.00;;;20.80;99.90;;;;;;5053859;28;20369;-72
2023/09/18 08:55:37;;;;;;;1.48;0.57;;;20.90;99.90;;;;;;5053537;28;20032;-72
2023/09/18 08:58:03;;;;;;;4.75;0.82;;;21.00;99.90;;;;;;5053821;28;20032;-72
2023/09/18 09:00:28;;;;;;;1.90;0.65;;;21.00;99.90;;;;;;5053842;28;20055;-72
2023/09/18 09:02:54;;;;;;;1.98;0.85;;;21.10;99.90;;;;;;5035910;28;20017;-72
2023/09/18 09:05:23;;;;;;;2.75;0.43;;;21.20;99.90;;;;;;5053740;28;20492;-72
2023/09/18 09:07:50;;;;;;;1.45;0.50;;;21.40;99.90;;;;;;5053708;28;20036;-72
2023/09/18 09:10:15;;;;;;;1.15;0.50;;;21.50;99.90;;;;;;5053513;28;20096;-72
2023/09/18 09:12:57;;;;;;;3.25;0.65;;;21.60;99.90;;;;;;5036148;28;20056;-72
2023/09/18 09:15:27;;;;;;;1.85;0.60;;;21.40;99.90;;;;;;5035552;28;20013;-72
2023/09/18 09:18:03;;;;;;;2.75;0.88;;;21.30;99.90;;;;;;5053688;28;20112;-72
2023/09/18 09:20:29;;;;;;;0.77;0.60;;;21.10;99.90;;;;;;5053406;28;20025;-72
2023/09/18 09:23:03;;;;;;;2.67;0.40;;;21.10;99.90;;;;;;5053425;28;20029;-72
2023/09/18 09:25:34;;;;;;;1.25;0.63;;;21.20;99.90;;;;;;5053313;28;20029;-72
2023/09/18 09:28:03;;;;;;;0.95;0.60;;;21.30;99.90;;;;;;5053225;28;20032;-72
2023/09/18 09:30:29;;;;;;;2.80;0.82;;;21.30;99.90;;;;;;5053353;28;20071;-72
2023/09/18 09:32:56;;;;;;;2.38;0.50;;;21.20;99.90;;;;;;5053338;28;20472;-72
2023/09/18 09:35:23;;;;;;;2.95;0.70;;;21.10;99.90;;;;;;5053271;28;20027;-72
2023/09/18 09:37:51;;;;;;;1.63;1.10;;;21.10;99.90;;;;;;5053116;28;20430;-72
2023/09/18 09:40:18;;;;;;;1.45;0.77;;;21.00;99.90;;;;;;5035455;28;20427;-72
2023/09/18 09:42:45;;;;;;;3.53;0.57;;;21.00;99.90;;;;;;5053178;28;20472;-72
2023/09/18 09:45:12;;;;;;;3.03;0.88;;;20.90;99.90;;;;;;5053034;28;20028;-72
2023/09/18 09:47:38;;;;;;;2.28;1.23;;;20.80;99.90;;;;;;5053570;28;20025;-72
2023/09/18 09:50:16;;;;;;;1.67;1.23;;;20.60;99.90;;;;;;5052936;28;20032;-72
2023/09/18 09:52:44;;;;;;;2.50;1.10;;;20.50;99.90;;;;;;5038187;28;20395;-72
2023/09/18 09:55:33;;;;;;;3.20;1.25;;;20.50;99.90;;;;;;5057342;28;20024;-72
2023/09/18 09:58:07;;;;;;;3.03;1.90;;;20.60;99.90;;;;;;5057116;28;20025;-72
2023/09/18 10:00:54;;;;;;;2.55;1.63;;;20.60;99.90;;;;;;5039254;28;20088;-72
2023/09/18 10:03:20;;;;;;;2.95;2.13;;;20.60;99.90;;;;;;5038571;28;20435;-72
2023/09/18 10:05:53;;;;;;;1.63;1.42;;;20.60;99.90;;;;;;5057005;28;20488;-72
2023/09/18 10:08:26;;;;;;;2.22;1.65;;;20.70;99.90;;;;;;5038983;28;20155;-72
2023/09/18 10:11:00;;;;;;;2.70;1.48;;;20.70;99.90;;;;;;5038953;28;20029;-72
2023/09/18 10:13:36;;;;;;;1.25;1.08;;;20.70;99.90;;;;;;5056872;28;20017;-72
2023/09/18 10:16:06;;;;;;;1.30;1.20;;;20.60;99.90;;;;;;5057928;28;20024;-72
2023/09/18 10:18:40;;;;;;;4.40;1.50;;;20.80;99.90;;;;;;5057368;28;20096;-72
2023/09/18 10:21:20;;;;;;;2.22;0.90;;;21.10;99.90;;;;;;5056834;28;20087;-72
2023/09/18 10:24:16;;;;;;;2.05;1.02;;;21.40;99.90;;;;;;5057337;28;20017;-72
2023/09/18 10:27:02;;;;;;;1.40;0.75;;;21.40;99.90;;;;;;5056670;28;20025;-72
2023/09/18 10:29:30;;;;;;;1.02;0.55;;;21.40;99.90;;;;;;5038950;28;20017;-72
2023/09/18 10:31:56;;;;;;;3.50;0.90;;;21.40;99.90;;;;;;5057001;28;20013;-72
2023/09/18 10:34:23;;;;;;;6.78;0.82;;;21.30;99.90;;;;;;5038719;28;20017;-72
2023/09/18 10:36:51;;;;;;;2.42;0.98;;;21.20;99.90;;;;;;5056486;28;20029;-72
2023/09/18 10:39:23;;;;;;;4.43;1.10;;;21.10;99.90;;;;;;5038437;28;20025;-72
2023/09/18 10:41:54;;;;;;;1.23;1.08;;;21.00;99.90;;;;;;5056498;28;20025;-72
2023/09/18 10:44:20;;;;;;;5.07;0.93;;;21.00;99.90;;;;;;5056275;28;20480;-72
2023/09/18 10:46:47;;;;;;;3.65;1.20;;;21.00;99.90;;;;;;5056916;28;20021;-72
2023/09/18 10:49:14;;;;;;;2.17;0.95;;;21.00;99.90;;;;;;5056158;28;20446;-72
2023/09/18 10:51:41;;;;;;;2.40;0.85;;;20.90;99.90;;;;;;5038320;28;20037;-72
2023/09/18 10:54:08;;;;;;;1.83;1.00;;;21.00;99.90;;;;;;5056166;28;20021;-72
2023/09/18 10:56:34;;;;;;;2.75;1.05;;;21.20;99.90;;;;;;5056371;28;20028;-72
2023/09/18 10:59:03;;;;;;;4.53;1.42;;;21.40;99.90;;;;;;5056086;28;20033;-72
2023/09/18 11:01:30;;;;;;;1.02;0.77;;;21.70;99.90;;;;;;5056234;28;20055;-72
2023/09/18 11:04:07;;;;;;;2.88;1.10;;;22.20;99.90;;;;;;5055526;28;20049;-73
2023/09/18 11:06:54;;;;;;;2.35;0.70;;;22.30;99.90;;;;;;5056458;28;20039;-72
2023/09/18 11:09:22;;;;;;;4.85;1.00;;;22.50;99.90;;;;;;5038002;28;20025;-72
2023/09/18 11:12:02;;;;;;;5.72;0.95;;;22.80;99.90;;;;;;5055720;28;20017;-72
2023/09/18 11:14:44;;;;;;;1.80;0.88;;;22.80;99.90;;;;;;5055705;28;20079;-72
2023/09/18 11:17:30;;;;;;;4.18;0.68;;;22.60;99.90;;;;;;5037733;28;20113;-72
2023/09/18 11:20:25;;;;;;;3.28;1.27;;;22.70;99.90;;;;;;5041423;28;20538;-72
2023/09/18 11:23:00;;;;;;;3.08;0.75;;;23.00;99.90;;;;;;5053240;28;20115;-72
2023/09/18 11:25:40;;;;;;;2.85;0.45;;;22.90;99.90;;;;;;5055573;28;20025;-72
2023/09/18 11:28:10;;;;;;;3.58;0.40;;;23.10;99.90;;;;;;5055886;28;20024;-72
2023/09/18 11:30:36;;;;;;;2.85;0.60;;;23.10;99.90;;;;;;5056104;28;20028;-72
2023/09/18 11:33:06;;;;;;;3.03;0.90;;;23.30;99.90;;;;;;5037699;28;20020;-72
2023/09/18 11:35:33;;;;;;;3.35;0.20;;;23.50;99.90;;;;;;5055265;28;20056;-72
2023/09/18 11:38:07;;;;;;;2.00;0.47;;;23.60;99.90;;;;;;5037418;28;20021;-72
2023/09/18 11:40:38;;;;;;;3.97;0.80;;;23.30;99.90;;;;;;5037382;28;20033;-72
2023/09/18 11:43:25;;;;;;;1.95;0.30;;;23.20;99.90;;;;;;5055383;28;20071;-72
2023/09/18 11:45:52;;;;;;;1.02;0.50;;;23.10;99.90;;;;;;5055106;28;20036;-72
2023/09/18 11:48:18;;;;;;;2.88;0.70;;;23.00;99.90;;;;;;5055156;28;20032;-72
2023/09/18 11:50:44;;;;;;;2.40;0.70;;;22.90;99.90;;;;;;5054941;28;20484;-72
2023/09/18 11:53:12;;;;;;;2.55;0.52;;;22.70;99.90;;;;;;5037097;28;20113;-71
2023/09/18 11:55:39;;;;;;;2.65;0.47;;;22.70;99.90;;;;;;5037084;28;20112;-72
2023/09/18 11:58:05;;;;;;;2.03;0.65;;;22.80;99.90;;;;;;5054942;28;20033;-72
2023/09/18 12:00:32;;;;;;;4.85;0.40;;;22.90;99.90;;;;;;5055416;28;20071;-72
2023/09/18 12:03:00;;;;;;;0.57;0.20;;;22.90;99.90;;;;;;5054838;28;20033;-72
2023/09/18 12:05:26;;;;;;;5.55;0.60;;;23.00;99.90;;;;;;5054673;28;20117;-72
2023/09/18 12:07:52;;;;;;;3.60;0.43;;;23.20;99.90;;;;;;5054776;28;20103;-72
2023/09/18 12:10:20;;;;;;;2.05;0.30;;;23.60;99.90;;;;;;5036973;28;20017;-72
2023/09/18 12:12:47;;;;;;;1.52;1.15;;;24.00;99.90;;;;;;5036832;28;20028;-72
2023/09/18 12:15:18;;;;;;;0.50;0.50;;;24.30;99.90;;;;;;5036459;28;20437;-72
2023/09/18 12:17:43;;;;;;;0.70;0.25;;;24.30;99.90;;;;;;5054606;28;20103;-72
2023/09/18 12:20:19;;;;;;;2.80;0.77;;;24.20;99.90;;;;;;5054355;28;20055;-72
2023/09/18 12:22:48;;;;;;;1.63;0.70;;;24.20;99.90;;;;;;5054809;28;20032;-72
2023/09/18 12:25:15;;;;;;;3.22;0.52;;;24.20;99.90;;;;;;5054398;28;20017;-72
2023/09/18 12:27:41;;;;;;;3.28;0.38;;;24.10;99.90;;;;;;5054253;28;20029;-72
2023/09/18 12:30:08;;;;;;;1.90;0.73;;;23.80;99.90;;;;;;5036383;28;20024;-71
2023/09/18 12:32:37;;;;;;;2.75;0.68;;;23.60;99.90;;;;;;5054815;28;20443;-70
2023/09/18 12:35:06;;;;;;;;;;;23.80;99.90;;;;;;5054931;28;20107;-70
2023/09/18 12:37:32;;;;;;;3.50;0.30;;;24.00;99.90;;;;;;5054151;28;19912;-70
2023/09/18 12:40:00;;;;;;;2.42;0.32;;;23.90;99.90;;;;;;5054143;28;20092;-70
2023/09/18 12:42:26;;;;;;;;;;;23.70;99.90;;;;;;5036663;28;20115;-70
2023/09/18 12:44:53;;;;;;;3.22;0.50;;;23.50;99.90;;;;;;5053930;28;19939;-70